Augusta, Ohio
Current Conditions -  °F | °C
As of 2:02 AM on Friday 28 Nov 2014 (Local Time) from KPHD Reporting Station
Overcast Overcast  
Wind Chill: 23°   Ceiling: 2000
Heat Index: 30°   Visibility: 10mi
Dew Point: 23°   Wind: 7mph
Humidity: 75%   Direction: 290°WNW
Pressure: 30.28"   Gusts: NA
Location:  40.69°N, 81.02°W
Report Text: KPHD 280702Z AUTO 29006KT 10SM BKN020 BKN028 OVC039 M01/M05 A3028 RMK AO2 T10111050
Loading
Personal Weather Stations






























Interactive Weather Map New forecast layout! Learn more

10-Day Weather Forecast

Advertisements
Track Severe Weather on mobile